Domov               UVHVVR             MKGP            O straneh              
ZDRAVSTVENO VARSTVO RASTLIN
  MREŽA AGROMET. POSTAJ
 ► PROGNOSTIČNA OBVESTILA
AGROMETEOROLOŠKI PODATKI -
ARSO
OBVLADOVANJE TVEGANJ ZARADI
NEUGODNIH VREMENSKIH RAZMER
  ► NARAVNE NESREČE
  ► SUŠA/MOČA
  ► NAMAKANJE
  ► ŽLED (gozdarstvo)
KARTOGRAFSKI PRIKAZI
SPLETNE POVEZAVE
PROJEKTI IN PUBLIKACIJE

AGROMETEOROLOŠKA MREŽA: VREMENSKE POSTAJE IN FENOLOŠKA OPAZOVANJA

Pregled podatkov za lokacijo Kovor, meteorološka postaja 45205

Pregled senzorjev na lokaciji

ID Ime Zadnja
vrednost
Datum
zadnje
spremembe
Tip
senzorja
3143 Padavine (mm) 0 mm 18.1.2018 20:00 Rain-O-Matic
3144 Temperatura 2 m (°C) 1,67 °C 18.1.2018 20:00 50YA
3145 Relativna vlaga 2 m (% RH) 67,77 % RH 18.1.2018 20:00 50YA
3146 Omočenost lista (U) 0 U 18.1.2018 20:00 A730WET
3147 Temperatura tal 5 cm (°C) 1,91 °C 18.1.2018 20:00 99TG411E
3954 Temperatura 20 cm (°C) -0,46 °C 18.1.2018 20:00 50YA
3955 Relativna vlaga 20 cm (% RH) 79,11 % RH 18.1.2018 20:00 50YA

Pregled podatkov zadnjih 24 ur

Zap.
št.
Datum in čas Kovor
Omočenost
lista
Padavine Relativna
vlaga
2
m
Relativna
vlaga
20
cm
Temperatura
2
m
Temperatura
20
cm
Temperatura
tal
5
cm
0 18.1.2018 20:00 0 0 67,77 79,11 1,67 -0,46 1,91
1 18.1.2018 19:30 0 0 65,12 75,3 1,49 -0,24 1,96
2 18.1.2018 19:00 0 0 61,9 71,12 2,12 0,64 2,03
3 18.1.2018 18:30 0 0 53,75 61,14 3,95 2,72 2,11
4 18.1.2018 18:00 0 0 52,06 59,04 4 2,84 2,12
5 18.1.2018 17:30 0 0 48,93 57,54 4,22 2,87 2,14
6 18.1.2018 17:00 0 0 45,43 55,63 4,68 3,01 2,12
7 18.1.2018 16:30 0 0 41,95 52 5,44 4,16 2,13
8 18.1.2018 16:00 0 0 39,67 46,88 6,63 6,13 2,13
9 18.1.2018 15:30 0 0 37,08 42,62 7,71 7,92 2,07
10 18.1.2018 15:00 0 0 36,44 42,56 7,43 7,61 1,97
11 18.1.2018 14:30 0 0 36,1 40,69 7,38 7,88 1,91
12 18.1.2018 14:00 0 0 39,08 43,09 7,1 7,92 1,79
13 18.1.2018 13:30 0 0 40,35 44 6,85 7,86 1,65
14 18.1.2018 13:00 0 0 40,99 44,84 6,35 7,27 1,54
15 18.1.2018 12:30 0 0 42,51 46,87 5,99 6,99 1,44
16 18.1.2018 12:00 0 0 44,24 48,15 5,73 6,97 1,48
17 18.1.2018 11:30 0 0 48,06 49,86 4,92 6,63 1,46
18 18.1.2018 11:00 0 0 52,61 55,88 3,14 4 1,35
19 18.1.2018 10:30 0 0 58,41 61,34 1,82 2,51 1,24
20 18.1.2018 10:00 0 0 62,25 65,67 0,74 1,28 1,19
21 18.1.2018 09:30 0 0 64,07 66,39 0,15 0,82 1,15
22 18.1.2018 09:00 0 0 67,75 71,18 -0,68 -0,47 1,12
23 18.1.2018 08:30 0 0 67,15 72,51 -0,99 -1,31 1,14
24 18.1.2018 08:00 0 0 62,66 70,64 -0,52 -1,45 1,15
25 18.1.2018 07:30 0 0 65,42 73,61 -0,81 -1,83 1,18
26 18.1.2018 07:00 0 0 64,7 72,19 -0,54 -1,39 1,21
27 18.1.2018 06:30 0 0 63,74 71,82 -0,22 -1,21 1,25
28 18.1.2018 06:00 0 0 64,39 72,64 -0,29 -1,45 1,28
29 18.1.2018 05:30 0 0 64,59 72,05 -0,05 -0,94 1,34
30 18.1.2018 05:00 0 0 64,54 71,76 0,13 -0,62 1,38
31 18.1.2018 04:30 0 0 64,81 72,11 0,25 -0,51 1,43
32 18.1.2018 04:00 0 0 66,94 74,27 0,05 -0,76 1,46
33 18.1.2018 03:30 0 0 67,47 74,8 0,2 -0,67 1,51
34 18.1.2018 03:00 0 0 68,72 75,93 0,24 -0,59 1,55
35 18.1.2018 02:30 0 0 67,58 76,71 0,42 -0,83 1,58
36 18.1.2018 02:00 0 0 68,04 78,79 0,18 -1,39 1,6
37 18.1.2018 01:30 0 0 66,99 78,49 -0,06 -1,53 1,62
38 18.1.2018 01:00 0 0 64,86 80,7 -0,02 -2,13 1,63
39 18.1.2018 00:30 0 0 58,45 69,2 1,17 -0,22 1,71
40 18.1.2018 00:00 0 0 58,18 66,89 1,53 0,8 1,77
41 17.1.2018 23:30 0 0 55,87 64,63 1,65 0,89 1,79
42 17.1.2018 23:00 0 0 57,11 67,2 1,28 0,36 1,82
43 17.1.2018 22:30 0 0 59,8 73,82 0,54 -0,93 1,81
44 17.1.2018 22:00 0 0 63,03 80,91 -0,27 -2,44 1,81
45 17.1.2018 21:30 0 0 63,31 80,42 -0,52 -2,68 1,86
46 17.1.2018 21:00 0 0 60,9 75,35 0,04 -1,62 1,93
© 2011 Ministrstvo za kmetijstvo, gozdarstvo in prehrano. Vse pravice pridržane.